createdAt,value
2022-10-11T00:00:56.044Z,14.60
2022-10-11T00:03:24.314Z,14.50
2022-10-11T00:05:53.861Z,14.50
2022-10-11T00:08:22.498Z,14.50
2022-10-11T00:10:59.394Z,14.40
2022-10-11T00:13:27.971Z,14.40
2022-10-11T00:15:56.178Z,14.40
2022-10-11T00:18:25.154Z,14.30
2022-10-11T00:21:02.235Z,14.30
2022-10-11T00:23:30.770Z,14.30
2022-10-11T00:26:02.302Z,14.30
2022-10-11T00:28:31.894Z,14.30
2022-10-11T00:31:00.157Z,14.20
2022-10-11T00:33:28.317Z,14.20
2022-10-11T00:35:56.969Z,14.10
2022-10-11T00:38:25.105Z,14.00
2022-10-11T00:40:53.423Z,13.90
2022-10-11T00:43:25.642Z,13.90
2022-10-11T00:46:22.104Z,13.80
2022-10-11T00:48:56.583Z,13.80
2022-10-11T00:51:32.659Z,13.70
2022-10-11T00:54:02.018Z,13.70
2022-10-11T00:56:33.801Z,13.70
2022-10-11T00:59:06.686Z,13.70
2022-10-11T01:01:35.011Z,13.60
2022-10-11T01:04:03.880Z,13.60
2022-10-11T01:06:31.934Z,13.60
2022-10-11T01:09:00.234Z,13.70
2022-10-11T01:11:31.145Z,13.60
2022-10-11T01:14:20.947Z,13.60
2022-10-11T01:16:56.218Z,13.50
2022-10-11T01:20:21.994Z,13.50
2022-10-11T01:23:17.254Z,13.60
2022-10-11T01:26:01.616Z,13.60
2022-10-11T01:28:43.398Z,13.60
2022-10-11T01:31:21.137Z,13.60
2022-10-11T01:33:54.437Z,13.60
2022-10-11T01:36:29.334Z,13.70
2022-10-11T01:39:04.573Z,13.70
2022-10-11T01:41:38.073Z,13.70
2022-10-11T01:44:07.862Z,13.70
2022-10-11T01:46:38.317Z,13.70
2022-10-11T01:49:07.019Z,13.80
2022-10-11T01:51:38.994Z,13.80
2022-10-11T01:54:22.389Z,13.80
2022-10-11T01:57:16.915Z,13.80
2022-10-11T01:59:57.253Z,13.90
2022-10-11T02:02:40.749Z,13.90
2022-10-11T02:05:13.843Z,13.90
2022-10-11T02:07:45.989Z,13.90
2022-10-11T02:10:20.681Z,13.90
2022-10-11T02:12:54.961Z,13.90
2022-10-11T02:15:24.153Z,13.90
2022-10-11T02:17:57.369Z,13.80
2022-10-11T02:20:27.707Z,13.80
2022-10-11T02:23:01.824Z,13.80
2022-10-11T02:25:34.173Z,13.60
2022-10-11T02:28:04.796Z,13.60
2022-10-11T02:30:34.892Z,13.60
2022-10-11T02:33:09.278Z,13.50
2022-10-11T02:35:43.610Z,13.60
2022-10-11T02:38:18.983Z,13.70
2022-10-11T02:40:51.831Z,13.70
2022-10-11T02:43:24.969Z,13.80
2022-10-11T02:45:57.348Z,13.80
2022-10-11T02:48:29.459Z,13.80
2022-10-11T02:50:58.511Z,13.80
2022-10-11T02:53:27.963Z,13.70
2022-10-11T02:55:56.952Z,13.70
2022-10-11T02:58:25.635Z,13.60
2022-10-11T03:00:53.874Z,13.60
2022-10-11T03:03:21.997Z,13.60
2022-10-11T03:05:51.486Z,13.60
2022-10-11T03:08:19.701Z,13.60
2022-10-11T03:10:48.367Z,13.60
2022-10-11T03:13:18.486Z,13.60
2022-10-11T03:16:00.705Z,13.60
2022-10-11T03:18:30.810Z,13.50
2022-10-11T03:21:00.339Z,13.40
2022-10-11T03:23:28.577Z,13.40
2022-10-11T03:25:56.755Z,13.40
2022-10-11T03:28:25.015Z,13.40
2022-10-11T03:30:53.444Z,13.40
2022-10-11T03:33:21.628Z,13.50
2022-10-11T03:35:50.368Z,13.60
2022-10-11T03:38:23.391Z,13.60
2022-10-11T03:40:51.848Z,13.50
2022-10-11T03:43:19.959Z,13.60
2022-10-11T03:45:48.086Z,13.60
2022-10-11T03:48:16.278Z,13.60
2022-10-11T03:50:44.437Z,13.60
2022-10-11T03:53:12.766Z,13.60
2022-10-11T03:55:42.774Z,13.60
2022-10-11T03:58:11.070Z,13.50
2022-10-11T04:00:40.326Z,13.50
2022-10-11T04:03:08.455Z,13.50
2022-10-11T04:05:36.595Z,13.40
2022-10-11T04:08:09.734Z,13.40
2022-10-11T04:10:41.573Z,13.40
2022-10-11T04:13:10.936Z,13.30
2022-10-11T04:15:39.531Z,13.30
2022-10-11T04:18:08.096Z,13.30
2022-10-11T04:20:36.226Z,13.30
2022-10-11T04:23:04.393Z,13.20
2022-10-11T04:25:32.490Z,13.10
2022-10-11T04:28:02.131Z,13.10
2022-10-11T04:30:30.225Z,13.00
2022-10-11T04:32:58.405Z,12.90
2022-10-11T04:35:26.492Z,12.90
2022-10-11T04:37:54.664Z,12.80
2022-10-11T04:40:22.805Z,12.80
2022-10-11T04:42:53.702Z,12.60
2022-10-11T04:45:25.660Z,12.60
2022-10-11T04:47:53.838Z,12.50
2022-10-11T04:50:22.001Z,12.50
2022-10-11T04:52:50.183Z,12.40
2022-10-11T04:55:18.406Z,12.40
2022-10-11T04:57:46.507Z,12.40
2022-10-11T05:00:15.451Z,12.30
2022-10-11T05:02:44.970Z,12.30
2022-10-11T05:05:17.455Z,12.20
2022-10-11T05:07:45.784Z,12.20
2022-10-11T05:10:14.602Z,12.20
2022-10-11T05:12:42.694Z,12.10
2022-10-11T05:15:11.865Z,12.00
2022-10-11T05:17:40.282Z,12.00
2022-10-11T05:20:11.003Z,12.00
2022-10-11T05:22:39.162Z,12.00
2022-10-11T05:25:07.776Z,11.90
2022-10-11T05:27:35.934Z,11.90
2022-10-11T05:30:05.359Z,11.90
2022-10-11T05:32:33.570Z,11.90
2022-10-11T05:35:01.685Z,11.80
2022-10-11T05:37:31.167Z,11.90
2022-10-11T05:39:59.273Z,11.80
2022-10-11T05:42:27.418Z,11.80
2022-10-11T05:44:55.511Z,11.80
2022-10-11T05:47:23.814Z,11.80
2022-10-11T05:49:51.925Z,11.80
2022-10-11T05:52:21.604Z,11.80
2022-10-11T05:54:51.230Z,11.80
2022-10-11T05:57:19.358Z,11.80
2022-10-11T05:59:47.455Z,11.80
2022-10-11T06:02:15.716Z,11.90
2022-10-11T06:04:43.833Z,11.80
2022-10-11T06:07:11.971Z,11.90
2022-10-11T06:09:40.103Z,12.00
2022-10-11T06:12:09.651Z,11.90
2022-10-11T06:14:37.921Z,12.00
2022-10-11T06:17:06.057Z,12.00
2022-10-11T06:19:34.188Z,11.90
2022-10-11T06:22:02.292Z,12.00
2022-10-11T06:24:30.436Z,11.90
2022-10-11T06:26:58.585Z,11.90
2022-10-11T06:29:28.041Z,12.00
2022-10-11T06:31:56.162Z,12.10
2022-10-11T06:34:24.522Z,12.10
2022-10-11T06:36:52.600Z,12.10
2022-10-11T06:39:22.340Z,12.10
2022-10-11T06:41:50.683Z,12.10
2022-10-11T06:44:18.766Z,12.20
2022-10-11T06:46:48.237Z,12.30
2022-10-11T06:49:22.233Z,12.40
2022-10-11T06:51:51.327Z,12.50
2022-10-11T06:54:19.482Z,12.50
2022-10-11T06:56:47.608Z,12.70
2022-10-11T06:59:15.756Z,12.80
2022-10-11T07:01:44.059Z,12.90
2022-10-11T07:04:16.168Z,12.90
2022-10-11T07:06:44.346Z,13.10
2022-10-11T07:09:12.493Z,13.10
2022-10-11T07:11:40.601Z,13.20
2022-10-11T07:14:09.137Z,13.20
2022-10-11T07:16:37.941Z,13.30
2022-10-11T07:19:07.865Z,13.30
2022-10-11T07:21:37.671Z,13.40
2022-10-11T07:24:06.427Z,13.50
2022-10-11T07:26:38.627Z,13.60
2022-10-11T07:29:08.282Z,13.60
2022-10-11T07:31:38.631Z,13.70
2022-10-11T07:34:06.764Z,13.80
2022-10-11T07:36:35.005Z,13.80
2022-10-11T07:39:05.753Z,13.90
2022-10-11T07:41:33.890Z,14.00
2022-10-11T07:44:03.342Z,14.10
2022-10-11T07:46:31.464Z,14.10
2022-10-11T07:48:59.801Z,14.00
2022-10-11T07:51:28.065Z,14.10
2022-10-11T07:53:58.014Z,14.10
2022-10-11T07:56:29.135Z,14.30
2022-10-11T07:58:58.751Z,14.30
2022-10-11T08:01:27.914Z,14.40
2022-10-11T08:03:56.904Z,14.60
2022-10-11T08:06:27.357Z,14.80
2022-10-11T08:08:55.454Z,14.80
2022-10-11T08:11:24.978Z,14.80
2022-10-11T08:13:55.076Z,14.90
2022-10-11T08:16:23.416Z,15.10
2022-10-11T08:18:51.751Z,15.20
2022-10-11T08:21:20.213Z,15.30
2022-10-11T08:23:48.368Z,15.40
2022-10-11T08:26:16.651Z,15.60
2022-10-11T08:28:44.996Z,15.60
2022-10-11T08:31:16.554Z,15.80
2022-10-11T08:33:45.058Z,15.80
2022-10-11T08:36:13.532Z,15.90
2022-10-11T08:38:42.180Z,15.90
2022-10-11T08:41:29.543Z,16.00
2022-10-11T08:44:09.598Z,16.20
2022-10-11T08:46:43.188Z,16.40
2022-10-11T08:49:14.833Z,16.50
2022-10-11T08:51:47.257Z,16.40
2022-10-11T08:54:20.308Z,16.40
2022-10-11T08:56:48.500Z,16.40
2022-10-11T08:59:29.143Z,16.50
2022-10-11T09:02:05.052Z,16.30
2022-10-11T09:04:33.496Z,16.40
2022-10-11T09:07:08.684Z,16.60
2022-10-11T09:09:58.267Z,16.50
2022-10-11T09:12:40.709Z,16.40
2022-10-11T09:15:25.631Z,16.40
2022-10-11T09:18:20.291Z,16.50
2022-10-11T09:20:54.107Z,16.50
2022-10-11T09:23:39.401Z,16.50
2022-10-11T09:26:11.188Z,16.80
2022-10-11T09:28:50.478Z,16.80
2022-10-11T09:31:19.144Z,16.80
2022-10-11T09:33:50.497Z,16.80
2022-10-11T09:36:24.835Z,16.80
2022-10-11T09:39:04.319Z,16.90
2022-10-11T09:41:39.598Z,17.20
2022-10-11T09:44:08.659Z,16.90
2022-10-11T09:46:39.021Z,16.60
2022-10-11T09:49:13.352Z,16.50
2022-10-11T09:51:45.217Z,16.80
2022-10-11T09:54:15.336Z,17.00
2022-10-11T09:56:45.162Z,17.20
2022-10-11T09:59:31.960Z,17.30
2022-10-11T10:02:24.339Z,17.00
2022-10-11T10:05:02.589Z,17.30
2022-10-11T10:07:33.034Z,17.30
2022-10-11T10:10:01.695Z,17.50
2022-10-11T10:12:31.610Z,17.70
2022-10-11T10:15:14.567Z,17.60
2022-10-11T10:17:50.641Z,17.60
2022-10-11T10:20:24.430Z,17.50
2022-10-11T10:22:53.765Z,17.40
2022-10-11T10:25:25.594Z,17.70
2022-10-11T10:28:02.794Z,17.80
2022-10-11T10:30:35.323Z,17.80
2022-10-11T10:33:11.078Z,17.70
2022-10-11T10:35:52.539Z,17.60
2022-10-11T10:38:27.078Z,17.60
2022-10-11T10:40:58.240Z,17.80
2022-10-11T10:43:28.773Z,17.80
2022-10-11T10:46:19.133Z,17.90
2022-10-11T10:52:03.059Z,17.70
2022-10-11T10:54:41.512Z,17.60
2022-10-11T10:57:18.400Z,17.40
2022-10-11T11:00:14.339Z,17.80
2022-10-11T11:02:51.991Z,17.90
2022-10-11T11:05:34.755Z,18.00
2022-10-11T11:08:16.531Z,17.90
2022-10-11T11:10:55.793Z,17.80
2022-10-11T11:13:34.669Z,17.60
2022-10-11T11:16:14.707Z,17.70
2022-10-11T11:18:53.493Z,17.80
2022-10-11T11:21:41.247Z,17.90
2022-10-11T11:24:21.451Z,17.90
2022-10-11T11:26:57.590Z,17.80
2022-10-11T11:29:41.219Z,17.50
2022-10-11T11:32:22.279Z,17.80
2022-10-11T11:34:55.659Z,17.80
2022-10-11T11:37:28.346Z,18.00
2022-10-11T11:40:02.585Z,18.20
2022-10-11T11:42:37.187Z,18.10
2022-10-11T11:45:14.781Z,18.00
2022-10-11T11:47:46.709Z,18.10
2022-10-11T11:50:22.703Z,17.90
2022-10-11T11:52:54.132Z,17.70
2022-10-11T11:55:30.954Z,17.60
2022-10-11T11:58:09.524Z,17.70
2022-10-11T12:00:50.349Z,17.60
2022-10-11T12:03:25.126Z,17.60
2022-10-11T12:06:18.366Z,17.70
2022-10-11T12:08:49.956Z,17.80
2022-10-11T12:11:29.414Z,17.60
2022-10-11T12:14:03.848Z,17.50
2022-10-11T12:16:32.471Z,17.60
2022-10-11T12:19:02.953Z,17.80
2022-10-11T12:21:33.274Z,17.80
2022-10-11T12:24:10.259Z,17.80
2022-10-11T12:26:44.706Z,17.70
2022-10-11T12:29:47.204Z,17.80
2022-10-11T12:32:52.653Z,17.80
2022-10-11T12:36:07.316Z,17.80
2022-10-11T12:38:39.806Z,18.00
2022-10-11T12:41:38.861Z,17.60
2022-10-11T12:44:22.198Z,17.50
2022-10-11T12:47:17.979Z,17.70
2022-10-11T12:50:07.365Z,17.80
2022-10-11T12:52:49.608Z,17.30
2022-10-11T12:55:38.301Z,17.30
2022-10-11T12:58:27.280Z,17.40
2022-10-11T13:01:19.625Z,17.50
2022-10-11T13:03:58.608Z,17.40
2022-10-11T13:06:29.493Z,17.30
2022-10-11T13:09:03.163Z,17.30
2022-10-11T13:11:37.117Z,17.50
2022-10-11T13:14:12.265Z,17.40
2022-10-11T13:17:05.078Z,17.30
2022-10-11T13:22:19.211Z,17.10
2022-10-11T13:24:47.725Z,16.80
2022-10-11T13:27:21.073Z,16.70
2022-10-11T13:29:51.202Z,16.80
2022-10-11T13:32:24.836Z,16.80
2022-10-11T13:34:58.482Z,16.70
2022-10-11T13:37:28.343Z,16.80
2022-10-11T13:39:58.123Z,16.80
2022-10-11T13:42:30.736Z,16.70
2022-10-11T13:44:59.382Z,16.60
2022-10-11T13:47:31.287Z,16.60
2022-10-11T13:50:09.115Z,16.60
2022-10-11T13:52:38.244Z,16.60
2022-10-11T13:55:15.044Z,16.60
2022-10-11T13:57:46.272Z,16.80
2022-10-11T14:00:29.919Z,16.80
2022-10-11T14:03:17.133Z,16.80
2022-10-11T14:05:58.699Z,16.80
2022-10-11T14:08:38.297Z,16.80
2022-10-11T14:11:07.724Z,16.70
2022-10-11T14:13:39.625Z,16.60
2022-10-11T14:16:09.967Z,16.60
2022-10-11T14:19:15.136Z,16.70
2022-10-11T14:21:52.629Z,16.70
2022-10-11T14:24:25.880Z,16.60
2022-10-11T14:26:55.926Z,16.50
2022-10-11T14:29:27.245Z,16.50
2022-10-11T14:32:00.174Z,16.60
2022-10-11T14:34:30.039Z,16.60
2022-10-11T14:36:58.258Z,16.70
2022-10-11T14:39:28.300Z,16.70
2022-10-11T14:46:10.080Z,16.50
2022-10-11T14:48:54.370Z,16.40
2022-10-11T14:51:28.717Z,16.50
2022-10-11T14:53:59.093Z,16.50
2022-10-11T14:56:29.743Z,16.60
2022-10-11T14:58:57.901Z,16.50
2022-10-11T15:01:26.579Z,16.50
2022-10-11T15:03:56.215Z,16.50
2022-10-11T15:06:33.642Z,16.50
2022-10-11T15:09:04.229Z,16.50
2022-10-11T15:11:32.460Z,16.50
2022-10-11T15:14:14.471Z,16.40
2022-10-11T15:16:44.510Z,16.40
2022-10-11T15:19:16.317Z,16.30
2022-10-11T15:21:48.724Z,16.30
2022-10-11T15:24:21.925Z,16.40
2022-10-11T15:26:56.270Z,16.40
2022-10-11T15:29:26.567Z,16.40
2022-10-11T15:31:54.749Z,16.40
2022-10-11T15:34:25.556Z,16.50
2022-10-11T15:37:11.277Z,16.50
2022-10-11T15:39:39.546Z,16.50
2022-10-11T15:42:08.345Z,16.40
2022-10-11T15:44:36.458Z,16.50
2022-10-11T15:47:04.641Z,16.50
2022-10-11T15:49:32.891Z,16.40
2022-10-11T15:52:01.003Z,16.40
2022-10-11T15:54:30.643Z,16.40
2022-10-11T15:56:58.842Z,16.40
2022-10-11T15:59:26.946Z,16.50
2022-10-11T16:01:55.147Z,16.50
2022-10-11T16:04:23.246Z,16.50
2022-10-11T16:06:51.365Z,16.50
2022-10-11T16:09:19.669Z,16.50
2022-10-11T16:11:51.927Z,16.50
2022-10-11T16:14:20.021Z,16.40
2022-10-11T16:16:48.126Z,16.30
2022-10-11T16:19:16.270Z,16.30
2022-10-11T16:21:45.935Z,16.30
2022-10-11T16:24:14.041Z,16.30
2022-10-11T16:26:42.264Z,16.30
2022-10-11T16:29:12.031Z,16.30
2022-10-11T16:31:40.245Z,16.10
2022-10-11T16:34:10.881Z,16.10
2022-10-11T16:36:42.531Z,16.10
2022-10-11T16:39:13.961Z,16.10
2022-10-11T16:41:42.686Z,16.10
2022-10-11T16:44:15.495Z,16.10
2022-10-11T16:46:48.068Z,16.00
2022-10-11T16:49:16.343Z,15.90
2022-10-11T16:51:46.825Z,15.80
2022-10-11T16:54:20.420Z,15.80
2022-10-11T16:56:49.521Z,15.80
2022-10-11T16:59:19.262Z,15.80
2022-10-11T17:01:47.444Z,15.80
2022-10-11T17:04:16.894Z,15.80
2022-10-11T17:06:45.043Z,15.80
2022-10-11T17:09:13.730Z,15.70
2022-10-11T17:11:41.960Z,15.60
2022-10-11T17:14:11.545Z,15.60
2022-10-11T17:16:41.340Z,15.60
2022-10-11T17:19:12.140Z,15.50
2022-10-11T17:21:40.418Z,15.50
2022-10-11T17:24:09.317Z,15.60
2022-10-11T17:26:37.459Z,15.60
2022-10-11T17:29:05.763Z,15.70
2022-10-11T17:31:33.891Z,15.60
2022-10-11T17:34:03.397Z,15.70
2022-10-11T17:36:34.798Z,15.70
2022-10-11T17:39:05.884Z,15.60
2022-10-11T17:41:34.046Z,15.50
2022-10-11T17:44:03.056Z,15.60
2022-10-11T17:46:32.580Z,15.60
2022-10-11T17:49:01.409Z,15.60
2022-10-11T17:51:31.821Z,15.60
2022-10-11T17:54:00.306Z,15.60
2022-10-11T17:56:35.082Z,15.50
2022-10-11T17:59:05.667Z,15.40
2022-10-11T18:01:33.854Z,15.40
2022-10-11T18:04:04.430Z,15.40
2022-10-11T18:06:39.005Z,15.40
2022-10-11T18:09:07.226Z,15.30
2022-10-11T18:11:35.397Z,15.30
2022-10-11T18:14:04.475Z,15.30
2022-10-11T18:16:33.615Z,15.30
2022-10-11T18:19:03.536Z,15.30
2022-10-11T18:21:34.672Z,15.30
2022-10-11T18:24:04.896Z,15.30
2022-10-11T18:26:33.491Z,15.30
2022-10-11T18:29:01.889Z,15.30
2022-10-11T18:31:33.822Z,15.20
2022-10-11T18:34:02.283Z,15.20
2022-10-11T18:36:35.987Z,15.10
2022-10-11T18:39:07.470Z,15.10
2022-10-11T18:41:36.473Z,15.00
2022-10-11T18:44:07.246Z,15.00
2022-10-11T18:46:37.317Z,15.00
2022-10-11T18:49:05.719Z,14.90
2022-10-11T18:51:39.210Z,14.80
2022-10-11T18:54:09.329Z,14.80
2022-10-11T18:56:37.957Z,14.80
2022-10-11T18:59:09.663Z,14.80
2022-10-11T19:01:39.896Z,14.80
2022-10-11T19:04:09.645Z,14.80
2022-10-11T19:06:41.453Z,14.70
2022-10-11T19:09:11.282Z,14.70
2022-10-11T19:11:40.098Z,14.70
2022-10-11T19:14:11.408Z,14.70
2022-10-11T19:16:41.928Z,14.70
2022-10-11T19:19:11.546Z,14.60
2022-10-11T19:21:41.072Z,14.60
2022-10-11T19:24:10.056Z,14.70
2022-10-11T19:26:40.460Z,14.60
2022-10-11T19:29:11.154Z,14.70
2022-10-11T19:31:43.618Z,14.70
2022-10-11T19:34:11.960Z,14.70
2022-10-11T19:36:42.660Z,14.70
2022-10-11T19:39:12.982Z,14.70
2022-10-11T19:41:42.459Z,14.70
2022-10-11T19:44:10.820Z,14.70
2022-10-11T19:46:54.625Z,14.60
2022-10-11T19:49:25.063Z,14.60
2022-10-11T19:51:55.986Z,14.50
2022-10-11T19:54:24.601Z,14.50
2022-10-11T19:56:52.854Z,14.50
2022-10-11T19:59:21.226Z,14.50
2022-10-11T20:01:52.688Z,14.50
2022-10-11T20:04:50.534Z,14.50
2022-10-11T20:07:11.568Z,14.50
2022-10-11T20:09:39.702Z,14.40
2022-10-11T20:12:08.365Z,14.40
2022-10-11T20:14:36.673Z,14.40
2022-10-11T20:17:04.859Z,14.40
2022-10-11T20:19:32.973Z,14.30
2022-10-11T20:22:02.052Z,14.30
2022-10-11T20:24:33.653Z,14.30
2022-10-11T20:27:03.481Z,14.40
2022-10-11T20:29:31.825Z,14.40
2022-10-11T20:32:00.133Z,14.40
2022-10-11T20:34:28.839Z,14.40
2022-10-11T20:36:57.158Z,14.40
2022-10-11T20:39:25.450Z,14.30
2022-10-11T20:41:54.965Z,14.30
2022-10-11T20:44:23.098Z,14.30
2022-10-11T20:46:51.290Z,14.30
2022-10-11T20:49:20.732Z,14.40
2022-10-11T20:51:49.363Z,14.30
2022-10-11T20:54:17.723Z,14.30
2022-10-11T20:56:45.849Z,14.30
2022-10-11T20:59:15.407Z,14.30
2022-10-11T21:01:43.695Z,14.40
2022-10-11T21:04:18.358Z,14.30
2022-10-11T21:06:46.760Z,14.30
2022-10-11T21:09:16.680Z,14.30
2022-10-11T21:11:45.276Z,14.20
2022-10-11T21:14:14.801Z,14.20
2022-10-11T21:16:43.175Z,14.10
2022-10-11T21:19:14.548Z,14.00
2022-10-11T21:21:42.923Z,14.00
2022-10-11T21:24:11.233Z,13.90
2022-10-11T21:26:39.554Z,13.90
2022-10-11T21:29:08.504Z,13.90
2022-10-11T21:31:38.030Z,13.90
2022-10-11T21:34:07.433Z,13.90
2022-10-11T21:36:35.958Z,13.80
2022-10-11T21:39:04.723Z,13.80
2022-10-11T21:41:34.051Z,13.90
2022-10-11T21:44:02.358Z,13.80
2022-10-11T21:47:01.057Z,13.80
2022-10-11T21:49:21.933Z,13.80
2022-10-11T21:51:50.083Z,13.80
2022-10-11T21:54:18.501Z,13.80
2022-10-11T21:56:46.657Z,13.70
2022-10-11T21:59:14.949Z,13.80
2022-10-11T22:01:44.017Z,13.80
2022-10-11T22:04:12.631Z,13.50
2022-10-11T22:06:42.112Z,13.60
2022-10-11T22:09:10.476Z,13.60
2022-10-11T22:11:38.707Z,13.50
2022-10-11T22:14:07.666Z,13.40
2022-10-11T22:16:36.412Z,13.50
2022-10-11T22:19:05.126Z,13.40
2022-10-11T22:21:33.195Z,13.40
2022-10-11T22:24:02.754Z,13.40
2022-10-11T22:26:32.166Z,13.30
2022-10-11T22:29:01.269Z,13.40
2022-10-11T22:31:30.264Z,13.40
2022-10-11T22:34:01.052Z,13.40
2022-10-11T22:36:30.492Z,13.50
2022-10-11T22:38:59.226Z,13.40
2022-10-11T22:41:28.858Z,13.50
2022-10-11T22:43:57.149Z,13.60
2022-10-11T22:46:25.308Z,13.60
2022-10-11T22:48:53.480Z,13.60
2022-10-11T22:51:21.618Z,13.60
2022-10-11T22:53:49.677Z,13.60
2022-10-11T22:56:17.769Z,13.70
2022-10-11T22:58:47.240Z,13.60
2022-10-11T23:01:16.954Z,13.70
2022-10-11T23:03:48.193Z,13.70
2022-10-11T23:06:16.408Z,13.70
2022-10-11T23:08:45.307Z,13.80
2022-10-11T23:11:13.751Z,13.70
2022-10-11T23:13:41.990Z,13.80
2022-10-11T23:16:13.285Z,13.80
2022-10-11T23:18:41.635Z,13.80
2022-10-11T23:21:10.307Z,13.80
2022-10-11T23:23:39.788Z,13.80
2022-10-11T23:26:09.964Z,13.80
2022-10-11T23:28:41.447Z,13.90
2022-10-11T23:31:16.593Z,13.90
2022-10-11T23:33:46.282Z,13.90
2022-10-11T23:36:18.935Z,13.80
2022-10-11T23:38:54.545Z,13.80
2022-10-11T23:41:28.914Z,13.80
2022-10-11T23:43:57.229Z,13.80
2022-10-11T23:46:26.901Z,13.80
2022-10-11T23:48:55.088Z,13.80
2022-10-11T23:51:23.228Z,13.80
2022-10-11T23:53:51.323Z,13.80
2022-10-11T23:56:19.492Z,13.80
2022-10-11T23:58:47.639Z,13.80
